createdAt,value
2016-05-14T00:00:11.372Z,1001.08
2016-05-14T00:01:11.358Z,1001.1
2016-05-14T00:02:11.346Z,1001.11
2016-05-14T00:03:11.333Z,1001.11
2016-05-14T00:04:11.319Z,1001.14
2016-05-14T00:05:11.308Z,1001.13
2016-05-14T00:06:11.293Z,1001.18
2016-05-14T00:07:11.281Z,1001.17
2016-05-14T00:08:11.268Z,1001.15
2016-05-14T00:09:11.255Z,1001.2
2016-05-14T00:10:11.242Z,1001.24
2016-05-14T00:11:11.229Z,1001.29
2016-05-14T00:12:11.216Z,1001.25
2016-05-14T00:13:11.204Z,1001.25
2016-05-14T00:14:11.191Z,1001.27
2016-05-14T00:15:11.177Z,1001.25
2016-05-14T00:16:11.165Z,1001.31
2016-05-14T00:17:11.151Z,1001.21
2016-05-14T00:18:11.140Z,1001.2
2016-05-14T00:19:11.142Z,1001.24
2016-05-14T00:20:11.113Z,1001.25
2016-05-14T00:21:11.100Z,1001.28
2016-05-14T00:22:11.087Z,1001.25
2016-05-14T00:23:11.074Z,1001.26
2016-05-14T00:24:11.062Z,1001.28
2016-05-14T00:25:11.048Z,1001.26
2016-05-14T00:26:11.035Z,1001.27
2016-05-14T00:27:11.069Z,1001.32
2016-05-14T00:28:11.025Z,1001.37
2016-05-14T00:29:10.997Z,1001.33
2016-05-14T00:30:10.999Z,1001.4
2016-05-14T00:31:10.970Z,1001.37
2016-05-14T00:32:10.973Z,1001.43
2016-05-14T00:33:10.961Z,1001.45
2016-05-14T00:34:10.947Z,1001.48
2016-05-14T00:35:10.934Z,1001.46
2016-05-14T00:36:10.906Z,1001.45
2016-05-14T00:37:10.908Z,1001.45
2016-05-14T00:38:10.880Z,1001.51
2016-05-14T00:39:10.883Z,1001.5
2016-05-14T00:40:10.869Z,1001.53
2016-05-14T00:41:10.857Z,1001.53
2016-05-14T00:42:10.844Z,1001.54
2016-05-14T00:43:10.831Z,1001.54
2016-05-14T00:44:10.818Z,1001.58
2016-05-14T00:45:10.804Z,1001.56
2016-05-14T00:46:10.793Z,1001.58
2016-05-14T00:47:10.780Z,1001.58
2016-05-14T00:48:10.766Z,1001.57
2016-05-14T00:49:10.754Z,1001.58
2016-05-14T00:50:10.740Z,1001.61
2016-05-14T00:51:10.728Z,1001.58
2016-05-14T00:52:10.714Z,1001.58
2016-05-14T00:53:10.701Z,1001.54
2016-05-14T00:54:10.689Z,1001.6
2016-05-14T00:55:10.676Z,1001.54
2016-05-14T00:56:10.663Z,1001.56
2016-05-14T00:57:10.650Z,1001.6
2016-05-14T00:58:10.636Z,1001.61
2016-05-14T00:59:10.624Z,1001.63
2016-05-14T01:00:10.611Z,1001.65
2016-05-14T01:01:10.598Z,1001.67
2016-05-14T01:02:10.586Z,1001.67
2016-05-14T01:03:10.572Z,1001.68
2016-05-14T01:04:10.559Z,1001.69
2016-05-14T01:05:10.546Z,1001.74
2016-05-14T01:06:10.533Z,1001.74
2016-05-14T01:07:10.521Z,1001.75
2016-05-14T01:08:10.508Z,1001.76
2016-05-14T01:09:10.495Z,1001.72
2016-05-14T01:10:10.482Z,1001.74
2016-05-14T01:11:10.469Z,1001.74
2016-05-14T01:12:10.455Z,1001.75
2016-05-14T01:13:10.443Z,1001.79
2016-05-14T01:14:10.430Z,1001.78
2016-05-14T01:15:10.417Z,1001.79
2016-05-14T01:16:10.405Z,1001.82
2016-05-14T01:17:10.391Z,1001.84
2016-05-14T01:18:10.362Z,1001.88
2016-05-14T01:19:10.366Z,1001.86
2016-05-14T01:20:10.352Z,1001.87
2016-05-14T01:21:10.323Z,1001.85
2016-05-14T01:22:10.311Z,1001.91
2016-05-14T01:23:10.298Z,1001.91
2016-05-14T01:24:10.285Z,1001.9
2016-05-14T01:25:10.272Z,1001.9
2016-05-14T01:26:10.259Z,1001.88
2016-05-14T01:27:10.246Z,1001.93
2016-05-14T01:28:10.233Z,1001.95
2016-05-14T01:29:10.220Z,1001.93
2016-05-14T01:30:10.223Z,1001.96
2016-05-14T01:31:10.195Z,1001.95
2016-05-14T01:32:10.182Z,1001.99
2016-05-14T01:33:10.169Z,1001.99
2016-05-14T01:34:10.156Z,1001.98
2016-05-14T01:35:10.143Z,1001.98
2016-05-14T01:36:10.130Z,1002.05
2016-05-14T01:37:10.116Z,1002.04
2016-05-14T01:38:10.104Z,1002.06
2016-05-14T01:39:16.138Z,1002.02
2016-05-14T01:40:10.094Z,1002.1
2016-05-14T01:41:10.065Z,1002.1
2016-05-14T01:42:10.053Z,1002.13
2016-05-14T01:43:10.038Z,1002.11
2016-05-14T01:44:10.026Z,1002.12
2016-05-14T01:45:10.013Z,1002.14
2016-05-14T01:46:10.001Z,1002.11
2016-05-14T01:47:09.988Z,1002.13
2016-05-14T01:48:10.459Z,1002.08
2016-05-14T01:49:09.962Z,1002.14
2016-05-14T01:50:09.948Z,1002.15
2016-05-14T01:51:09.936Z,1002.14
2016-05-14T01:52:09.923Z,1002.16
2016-05-14T01:53:09.910Z,1002.19
2016-05-14T01:54:09.897Z,1002.19
2016-05-14T01:55:09.884Z,1002.17
2016-05-14T01:56:09.871Z,1002.17
2016-05-14T01:57:09.858Z,1002.2
2016-05-14T01:58:09.846Z,1002.25
2016-05-14T01:59:09.832Z,1002.27
2016-05-14T02:00:09.820Z,1002.31
2016-05-14T02:01:09.806Z,1002.33
2016-05-14T02:02:09.794Z,1002.31
2016-05-14T02:03:09.781Z,1002.31
2016-05-14T02:04:09.767Z,1002.3
2016-05-14T02:05:09.755Z,1002.33
2016-05-14T02:06:09.741Z,1002.33
2016-05-14T02:07:09.728Z,1002.34
2016-05-14T02:08:09.731Z,1002.27
2016-05-14T02:09:09.703Z,1002.31
2016-05-14T02:10:09.691Z,1002.31
2016-05-14T02:11:09.677Z,1002.31
2016-05-14T02:12:09.664Z,1002.33
2016-05-14T02:13:09.651Z,1002.33
2016-05-14T02:14:09.638Z,1002.28
2016-05-14T02:15:09.625Z,1002.36
2016-05-14T02:16:09.613Z,1002.29
2016-05-14T02:17:09.600Z,1002.32
2016-05-14T02:18:09.696Z,1002.34
2016-05-14T02:19:09.574Z,1002.33
2016-05-14T02:20:09.560Z,1002.32
2016-05-14T02:21:09.548Z,1002.33
2016-05-14T02:22:09.535Z,1002.33
2016-05-14T02:23:09.521Z,1002.35
2016-05-14T02:24:09.493Z,1002.38
2016-05-14T02:25:09.496Z,1002.4
2016-05-14T02:26:09.468Z,1002.43
2016-05-14T02:27:09.454Z,1002.45
2016-05-14T02:28:09.456Z,1002.44
2016-05-14T02:29:09.429Z,1002.42
2016-05-14T02:30:09.432Z,1002.47
2016-05-14T02:31:09.403Z,1002.46
2016-05-14T02:32:09.390Z,1002.47
2016-05-14T02:33:09.378Z,1002.53
2016-05-14T02:34:09.364Z,1002.5
2016-05-14T02:35:09.351Z,1002.5
2016-05-14T02:36:09.338Z,1002.49
2016-05-14T02:37:09.325Z,1002.52
2016-05-14T02:38:09.375Z,1002.51
2016-05-14T02:39:09.362Z,1002.52
2016-05-14T02:40:09.287Z,1002.53
2016-05-14T02:41:09.274Z,1002.53
2016-05-14T02:42:09.260Z,1002.57
2016-05-14T02:43:09.247Z,1002.54
2016-05-14T02:44:09.235Z,1002.52
2016-05-14T02:45:09.222Z,1002.54
2016-05-14T02:46:09.208Z,1002.58
2016-05-14T02:47:09.211Z,1002.58
2016-05-14T02:48:09.464Z,1002.61
2016-05-14T02:49:09.170Z,1002.61
2016-05-14T02:50:09.157Z,1002.63
2016-05-14T02:51:09.143Z,1002.65
2016-05-14T02:52:09.131Z,1002.69
2016-05-14T02:53:09.119Z,1002.65
2016-05-14T02:54:09.104Z,1002.64
2016-05-14T02:55:09.076Z,1002.67
2016-05-14T02:56:09.064Z,1002.69
2016-05-14T02:57:09.051Z,1002.64
2016-05-14T02:58:09.038Z,1002.7
2016-05-14T02:59:09.025Z,1002.65
2016-05-14T03:00:09.012Z,1002.63
2016-05-14T03:01:08.998Z,1002.69
2016-05-14T03:02:08.986Z,1002.68
2016-05-14T03:03:08.973Z,1002.67
2016-05-14T03:04:08.961Z,1002.66
2016-05-14T03:05:08.947Z,1002.66
2016-05-14T03:06:08.934Z,1002.72
2016-05-14T03:07:08.922Z,1002.69
2016-05-14T03:08:08.908Z,1002.72
2016-05-14T03:09:08.895Z,1002.75
2016-05-14T03:10:08.883Z,1002.74
2016-05-14T03:11:08.869Z,1002.71
2016-05-14T03:12:08.857Z,1002.77
2016-05-14T03:13:08.844Z,1002.77
2016-05-14T03:14:08.831Z,1002.78
2016-05-14T03:15:08.818Z,1002.75
2016-05-14T03:16:08.789Z,1002.81
2016-05-14T03:17:08.777Z,1002.79
2016-05-14T03:18:08.763Z,1002.78
2016-05-14T03:19:08.751Z,1002.82
2016-05-14T03:20:08.737Z,1002.81
2016-05-14T03:21:08.724Z,1002.82
2016-05-14T03:22:08.712Z,1002.8
2016-05-14T03:23:08.699Z,1002.83
2016-05-14T03:24:08.686Z,1002.81
2016-05-14T03:25:08.673Z,1002.85
2016-05-14T03:26:08.660Z,1002.9
2016-05-14T03:27:08.647Z,1002.89
2016-05-14T03:28:08.634Z,1002.91
2016-05-14T03:29:08.621Z,1002.9
2016-05-14T03:30:08.608Z,1002.9
2016-05-14T03:31:08.596Z,1002.96
2016-05-14T03:32:08.582Z,1002.96
2016-05-14T03:33:08.570Z,1002.94
2016-05-14T03:34:08.556Z,1002.95
2016-05-14T03:35:08.544Z,1002.97
2016-05-14T03:36:08.531Z,1003
2016-05-14T03:37:08.502Z,1003.01
2016-05-14T03:38:08.505Z,1003.07
2016-05-14T03:39:08.476Z,1003.05
2016-05-14T03:40:08.464Z,1003.05
2016-05-14T03:41:08.450Z,1003.03
2016-05-14T03:42:08.438Z,1003.06
2016-05-14T03:43:08.425Z,1003.07
2016-05-14T03:44:08.411Z,1003.11
2016-05-14T03:45:08.399Z,1003.07
2016-05-14T03:46:08.385Z,1003.07
2016-05-14T03:47:08.372Z,1003.03
2016-05-14T03:48:08.360Z,1003.04
2016-05-14T03:49:08.346Z,1003.04
2016-05-14T03:50:08.334Z,1003.04
2016-05-14T03:51:08.321Z,1003.05
2016-05-14T03:52:08.308Z,1003
2016-05-14T03:53:08.295Z,1003.11
2016-05-14T03:54:08.282Z,1003.08
2016-05-14T03:55:08.269Z,1003.04
2016-05-14T03:56:08.256Z,1003.1
2016-05-14T03:57:08.244Z,1003.09
2016-05-14T03:58:08.230Z,1003.09
2016-05-14T03:59:08.217Z,1003.08
2016-05-14T04:00:08.205Z,1003.05
2016-05-14T04:01:08.192Z,1003.05
2016-05-14T04:02:08.179Z,1003.04
2016-05-14T04:03:08.165Z,1003.02
2016-05-14T04:04:08.153Z,1003.08
2016-05-14T04:05:08.140Z,1003.06
2016-05-14T04:06:08.127Z,1003.11
2016-05-14T04:07:08.114Z,1003.08
2016-05-14T04:08:08.101Z,1003.07
2016-05-14T04:09:08.073Z,1003.15
2016-05-14T04:10:08.076Z,1003.12
2016-05-14T04:11:08.047Z,1003.17
2016-05-14T04:12:08.034Z,1003.15
2016-05-14T04:13:08.021Z,1003.12
2016-05-14T04:14:08.008Z,1003.19
2016-05-14T04:15:07.994Z,1003.23
2016-05-14T04:16:07.982Z,1003.21
2016-05-14T04:17:07.969Z,1003.19
2016-05-14T04:18:07.956Z,1003.2
2016-05-14T04:19:07.943Z,1003.17
2016-05-14T04:20:07.936Z,1003.17
2016-05-14T04:21:07.967Z,1003.18
2016-05-14T04:22:07.996Z,1003.21
2016-05-14T04:23:08.026Z,1003.23
2016-05-14T04:24:08.056Z,1003.25
2016-05-14T04:25:08.082Z,1003.23
2016-05-14T04:26:08.085Z,1003.25
2016-05-14T04:27:08.087Z,1003.24
2016-05-14T04:28:08.090Z,1003.28
2016-05-14T04:29:08.093Z,1003.23
2016-05-14T04:30:08.109Z,1003.21
2016-05-14T04:31:08.086Z,1003.18
2016-05-14T04:32:08.079Z,1003.25
2016-05-14T04:33:08.072Z,1003.25
2016-05-14T04:34:08.064Z,1003.26
2016-05-14T04:35:08.057Z,1003.21
2016-05-14T04:36:08.046Z,1003.26
2016-05-14T04:37:08.036Z,1003.3
2016-05-14T04:38:08.024Z,1003.3
2016-05-14T04:39:08.013Z,1003.33
2016-05-14T04:40:08.002Z,1003.32
2016-05-14T04:41:07.990Z,1003.33
2016-05-14T04:42:07.977Z,1003.36
2016-05-14T04:43:07.966Z,1003.38
2016-05-14T04:44:07.953Z,1003.37
2016-05-14T04:45:07.942Z,1003.42
2016-05-14T04:46:07.928Z,1003.43
2016-05-14T04:47:07.916Z,1003.45
2016-05-14T04:48:07.903Z,1003.4
2016-05-14T04:49:07.891Z,1003.46
2016-05-14T04:50:07.878Z,1003.48
2016-05-14T04:51:07.865Z,1003.47
2016-05-14T04:52:07.852Z,1003.47
2016-05-14T04:53:07.839Z,1003.5
2016-05-14T04:54:07.826Z,1003.55
2016-05-14T04:55:07.813Z,1003.56
2016-05-14T04:56:07.801Z,1003.55
2016-05-14T04:57:07.788Z,1003.65
2016-05-14T04:58:07.774Z,1003.61
2016-05-14T04:59:07.762Z,1003.65
2016-05-14T05:00:07.748Z,1003.6
2016-05-14T05:01:07.736Z,1003.64
2016-05-14T05:02:07.723Z,1003.65
2016-05-14T05:03:07.709Z,1003.71
2016-05-14T05:04:07.698Z,1003.69
2016-05-14T05:05:07.684Z,1003.69
2016-05-14T05:06:07.671Z,1003.74
2016-05-14T05:07:07.659Z,1003.74
2016-05-14T05:08:07.645Z,1003.77
2016-05-14T05:09:07.633Z,1003.76
2016-05-14T05:10:07.619Z,1003.75
2016-05-14T05:11:07.606Z,1003.79
2016-05-14T05:12:07.594Z,1003.79
2016-05-14T05:13:07.581Z,1003.81
2016-05-14T05:14:07.568Z,1003.75
2016-05-14T05:15:07.570Z,1003.78
2016-05-14T05:16:07.558Z,1003.76
2016-05-14T05:17:07.529Z,1003.77
2016-05-14T05:18:07.516Z,1003.78
2016-05-14T05:19:07.518Z,1003.79
2016-05-14T05:20:07.506Z,1003.81
2016-05-14T05:21:07.493Z,1003.83
2016-05-14T05:22:07.480Z,1003.85
2016-05-14T05:23:07.467Z,1003.87
2016-05-14T05:24:07.454Z,1003.88
2016-05-14T05:25:07.441Z,1003.89
2016-05-14T05:26:07.428Z,1003.9
2016-05-14T05:27:07.415Z,1003.91
2016-05-14T05:28:07.402Z,1003.88
2016-05-14T05:29:07.390Z,1003.9
2016-05-14T05:30:07.376Z,1003.93
2016-05-14T05:31:07.363Z,1003.92
2016-05-14T05:32:07.351Z,1003.92
2016-05-14T05:33:07.337Z,1003.91
2016-05-14T05:34:07.340Z,1003.95
2016-05-14T05:35:07.312Z,1003.93
2016-05-14T05:36:07.298Z,1003.96
2016-05-14T05:37:07.301Z,1003.93
2016-05-14T05:38:07.289Z,1003.95
2016-05-14T05:39:07.259Z,1003.92
2016-05-14T05:40:07.262Z,1003.88
2016-05-14T05:41:07.249Z,1003.92
2016-05-14T05:42:07.236Z,1003.91
2016-05-14T05:43:07.225Z,1003.86
2016-05-14T05:44:07.211Z,1003.9
2016-05-14T05:45:07.198Z,1003.89
2016-05-14T05:46:07.185Z,1003.91
2016-05-14T05:47:07.172Z,1003.94
2016-05-14T05:48:07.159Z,1003.94
2016-05-14T05:49:07.146Z,1003.89
2016-05-14T05:50:07.133Z,1003.93
2016-05-14T05:51:07.135Z,1003.92
2016-05-14T05:52:07.108Z,1003.92
2016-05-14T05:53:07.095Z,1003.95
2016-05-14T05:54:07.082Z,1003.95
2016-05-14T05:55:07.069Z,1003.97
2016-05-14T05:56:07.055Z,1003.97
2016-05-14T05:57:07.043Z,1003.99
2016-05-14T05:58:07.030Z,1003.96
2016-05-14T05:59:07.017Z,1004
2016-05-14T06:00:07.020Z,1004.02
2016-05-14T06:01:07.006Z,1004.01
2016-05-14T06:02:06.994Z,1004
2016-05-14T06:03:06.981Z,1004.01
2016-05-14T06:04:07.437Z,1004.01
2016-05-14T06:05:06.955Z,1004.05
2016-05-14T06:06:06.942Z,1004.05
2016-05-14T06:07:06.929Z,1004.08
2016-05-14T06:08:06.917Z,1004.05
2016-05-14T06:09:06.903Z,1004.05
2016-05-14T06:10:06.890Z,1004.09
2016-05-14T06:11:06.877Z,1004.1
2016-05-14T06:12:06.864Z,1004.13
2016-05-14T06:13:06.851Z,1004.11
2016-05-14T06:14:06.839Z,1004.15
2016-05-14T06:15:06.842Z,1004.1
2016-05-14T06:16:06.828Z,1004.15
2016-05-14T06:17:06.816Z,1004.12
2016-05-14T06:18:06.802Z,1004.13
2016-05-14T06:19:06.789Z,1004.14
2016-05-14T06:20:06.776Z,1004.13
2016-05-14T06:21:06.763Z,1004.12
2016-05-14T06:22:06.750Z,1004.15
2016-05-14T06:23:06.738Z,1004.15
2016-05-14T06:24:06.725Z,1004.16
2016-05-14T06:25:06.712Z,1004.14
2016-05-14T06:26:06.715Z,1004.16
2016-05-14T06:27:06.701Z,1004.19
2016-05-14T06:28:06.688Z,1004.19
2016-05-14T06:29:06.676Z,1004.21
2016-05-14T06:30:06.678Z,1004.23
2016-05-14T06:31:06.649Z,1004.23
2016-05-14T06:32:06.637Z,1004.19
2016-05-14T06:33:06.624Z,1004.18
2016-05-14T06:34:06.627Z,1004.23
2016-05-14T06:35:06.614Z,1004.25
2016-05-14T06:36:06.601Z,1004.24
2016-05-14T06:37:06.587Z,1004.28
2016-05-14T06:38:06.575Z,1004.27
2016-05-14T06:39:06.562Z,1004.29
2016-05-14T06:40:06.548Z,1004.32
2016-05-14T06:41:06.536Z,1004.26
2016-05-14T06:42:06.538Z,1004.32
2016-05-14T06:43:06.525Z,1004.33
2016-05-14T06:44:06.514Z,1004.35
2016-05-14T06:45:06.500Z,1004.29
2016-05-14T06:46:06.487Z,1004.28
2016-05-14T06:47:06.474Z,1004.3
2016-05-14T06:48:06.461Z,1004.31
2016-05-14T06:49:06.464Z,1004.26
2016-05-14T06:50:06.450Z,1004.25
2016-05-14T06:51:06.438Z,1004.32
2016-05-14T06:52:06.424Z,1004.28
2016-05-14T06:53:06.413Z,1004.31
2016-05-14T06:54:06.416Z,1004.29
2016-05-14T06:55:06.402Z,1004.32
2016-05-14T06:56:06.389Z,1004.31
2016-05-14T06:57:06.376Z,1004.32
2016-05-14T06:58:06.363Z,1004.34
2016-05-14T06:59:06.350Z,1004.32
2016-05-14T07:00:06.352Z,1004.34
2016-05-14T07:01:06.340Z,1004.32
2016-05-14T07:02:06.326Z,1004.35
2016-05-14T07:03:06.314Z,1004.37
2016-05-14T07:04:06.317Z,1004.35
2016-05-14T07:05:06.303Z,1004.39
2016-05-14T07:06:06.291Z,1004.4
2016-05-14T07:07:06.278Z,1004.39
2016-05-14T07:08:06.281Z,1004.37
2016-05-14T07:09:06.268Z,1004.45
2016-05-14T07:10:06.254Z,1004.43
2016-05-14T07:11:06.242Z,1004.46
2016-05-14T07:12:06.228Z,1004.48
2016-05-14T07:13:06.231Z,1004.46
2016-05-14T07:14:06.219Z,1004.45
2016-05-14T07:15:06.206Z,1004.45
2016-05-14T07:16:06.193Z,1004.44
2016-05-14T07:17:06.195Z,1004.5
2016-05-14T07:18:06.183Z,1004.49
2016-05-14T07:19:06.358Z,1004.47
2016-05-14T07:20:06.188Z,1004.49
2016-05-14T07:21:06.159Z,1004.5
2016-05-14T07:22:06.146Z,1004.51
2016-05-14T07:23:06.133Z,1004.55
2016-05-14T07:24:06.121Z,1004.58
2016-05-14T07:25:06.108Z,1004.54
2016-05-14T07:26:06.095Z,1004.57
2016-05-14T07:27:06.096Z,1004.57
2016-05-14T07:28:06.085Z,1004.57
2016-05-14T07:29:06.072Z,1004.57
2016-05-14T07:30:06.058Z,1004.55
2016-05-14T07:31:06.061Z,1004.55
2016-05-14T07:32:06.048Z,1004.57
2016-05-14T07:33:06.035Z,1004.57
2016-05-14T07:34:06.023Z,1004.56
2016-05-14T07:35:06.009Z,1004.6
2016-05-14T07:36:05.996Z,1004.6
2016-05-14T07:37:05.999Z,1004.63
2016-05-14T07:38:05.987Z,1004.59
2016-05-14T07:39:05.974Z,1004.59
2016-05-14T07:40:05.960Z,1004.62
2016-05-14T07:41:05.963Z,1004.66
2016-05-14T07:42:05.950Z,1004.61
2016-05-14T07:43:05.936Z,1004.58
2016-05-14T07:44:05.925Z,1004.59
2016-05-14T07:45:05.927Z,1004.58
2016-05-14T07:46:05.914Z,1004.62
2016-05-14T07:47:05.901Z,1004.59
2016-05-14T07:48:05.889Z,1004.57
2016-05-14T07:49:05.892Z,1004.59
2016-05-14T07:50:05.878Z,1004.61
2016-05-14T07:51:05.865Z,1004.6
2016-05-14T07:52:05.852Z,1004.56
2016-05-14T07:53:05.855Z,1004.53
2016-05-14T07:54:05.842Z,1004.6
2016-05-14T07:55:05.829Z,1004.59
2016-05-14T07:56:05.816Z,1004.55
2016-05-14T07:57:05.803Z,1004.51
2016-05-14T07:58:05.805Z,1004.53
2016-05-14T07:59:05.793Z,1004.55
2016-05-14T08:00:05.780Z,1004.56
2016-05-14T08:01:05.767Z,1004.57
2016-05-14T08:02:05.754Z,1004.57
2016-05-14T08:03:05.757Z,1004.53
2016-05-14T08:04:05.744Z,1004.55
2016-05-14T08:05:05.731Z,1004.63
2016-05-14T08:06:05.734Z,1004.6
2016-05-14T08:07:05.720Z,1004.59
2016-05-14T08:08:05.707Z,1004.62
2016-05-14T08:09:05.695Z,1004.61
2016-05-14T08:10:05.682Z,1004.66
2016-05-14T08:11:05.669Z,1004.66
2016-05-14T08:12:05.671Z,1004.69
2016-05-14T08:13:05.642Z,1004.7
2016-05-14T08:14:05.645Z,1004.67
2016-05-14T08:15:05.633Z,1004.66
2016-05-14T08:16:05.620Z,1004.7
2016-05-14T08:17:05.606Z,1004.66
2016-05-14T08:18:05.594Z,1004.72
2016-05-14T08:19:05.597Z,1004.73
2016-05-14T08:20:05.583Z,1004.72
2016-05-14T08:21:05.586Z,1004.71
2016-05-14T08:22:05.558Z,1004.71
2016-05-14T08:23:05.545Z,1004.73
2016-05-14T08:24:05.532Z,1004.72
2016-05-14T08:25:05.519Z,1004.75
2016-05-14T08:26:05.522Z,1004.7
2016-05-14T08:27:05.508Z,1004.68
2016-05-14T08:28:05.496Z,1004.72
2016-05-14T08:29:05.482Z,1004.63
2016-05-14T08:30:05.485Z,1004.7
2016-05-14T08:31:05.472Z,1004.7
2016-05-14T08:32:05.460Z,1004.67
2016-05-14T08:33:05.447Z,1004.76
2016-05-14T08:34:05.435Z,1004.77
2016-05-14T08:35:05.421Z,1004.81
2016-05-14T08:36:05.424Z,1004.85
2016-05-14T08:37:05.395Z,1004.89
2016-05-14T08:38:05.398Z,1004.89
2016-05-14T08:39:05.385Z,1004.9
2016-05-14T08:40:05.371Z,1004.94
2016-05-14T08:41:05.359Z,1004.91
2016-05-14T08:42:05.346Z,1004.9
2016-05-14T08:43:05.333Z,1004.93
2016-05-14T08:44:05.336Z,1004.89
2016-05-14T08:45:05.323Z,1004.92
2016-05-14T08:46:05.310Z,1004.96
2016-05-14T08:47:05.297Z,1004.91
2016-05-14T08:48:05.284Z,1004.92
2016-05-14T08:49:05.271Z,1004.92
2016-05-14T08:50:05.273Z,1004.92
2016-05-14T08:51:05.261Z,1004.95
2016-05-14T08:52:05.247Z,1004.93
2016-05-14T08:53:05.235Z,1004.87
2016-05-14T08:54:05.238Z,1004.98
2016-05-14T08:55:05.225Z,1004.96
2016-05-14T08:56:05.211Z,1004.93
2016-05-14T08:57:05.199Z,1004.88
2016-05-14T08:58:05.186Z,1004.99
2016-05-14T08:59:05.189Z,1004.93
2016-05-14T09:00:05.175Z,1004.97
2016-05-14T09:01:05.178Z,1004.97
2016-05-14T09:02:05.165Z,1004.94
2016-05-14T09:03:05.168Z,1004.95
2016-05-14T09:04:05.186Z,1004.91
2016-05-14T09:05:05.142Z,1004.97
2016-05-14T09:06:05.145Z,1004.94
2016-05-14T09:07:05.147Z,1004.94
2016-05-14T09:08:05.135Z,1004.99
2016-05-14T09:09:05.138Z,1004.99
2016-05-14T09:10:05.124Z,1004.97
2016-05-14T09:11:05.127Z,1004.98
2016-05-14T09:12:05.145Z,1004.97
2016-05-14T09:13:05.117Z,1004.99
2016-05-14T09:14:05.120Z,1005.02
2016-05-14T09:15:05.106Z,1005.05
2016-05-14T09:16:05.109Z,1005.02
2016-05-14T09:17:05.111Z,1005.05
2016-05-14T09:18:05.098Z,1005.04
2016-05-14T09:19:05.102Z,1004.99
2016-05-14T09:20:05.103Z,1004.96
2016-05-14T09:21:05.092Z,1004.94
2016-05-14T09:22:05.094Z,1005.04
2016-05-14T09:23:05.097Z,1005.03
2016-05-14T09:24:05.084Z,1005.03
2016-05-14T09:25:05.086Z,1005.01
2016-05-14T09:26:05.074Z,1005.03
2016-05-14T09:27:05.076Z,1004.98
2016-05-14T09:28:05.063Z,1005.01
2016-05-14T09:29:05.066Z,1005.06
2016-05-14T09:30:05.068Z,1005.07
2016-05-14T09:31:05.056Z,1004.99
2016-05-14T09:32:05.058Z,1005.05
2016-05-14T09:33:05.046Z,1005.11
2016-05-14T09:34:05.049Z,1005.15
2016-05-14T09:35:05.035Z,1005.22
2016-05-14T09:36:05.038Z,1005.1
2016-05-14T09:37:05.024Z,1005.12
2016-05-14T09:38:05.027Z,1005.09
2016-05-14T09:39:05.015Z,1005.13
2016-05-14T09:40:05.001Z,1005.19
2016-05-14T09:41:05.004Z,1005.15
2016-05-14T09:42:04.991Z,1005.08
2016-05-14T09:43:04.994Z,1005.19
2016-05-14T09:44:04.982Z,1005.21
2016-05-14T09:45:04.968Z,1005.24
2016-05-14T09:46:04.971Z,1005.28
2016-05-14T09:47:04.958Z,1005.23
2016-05-14T09:48:04.945Z,1005.21
2016-05-14T09:49:05.557Z,1005.23
2016-05-14T09:50:04.934Z,1005.27
2016-05-14T09:51:04.922Z,1005.25
2016-05-14T09:52:04.925Z,1005.24
2016-05-14T09:53:04.911Z,1005.2
2016-05-14T09:54:04.899Z,1005.24
2016-05-14T09:55:04.902Z,1005.28
2016-05-14T09:56:04.889Z,1005.23
2016-05-14T09:57:04.891Z,1005.25
2016-05-14T09:58:04.878Z,1005.27
2016-05-14T09:59:04.866Z,1005.24
2016-05-14T10:00:04.868Z,1005.29
2016-05-14T10:01:04.855Z,1005.3
2016-05-14T10:02:04.842Z,1005.29
2016-05-14T10:03:04.844Z,1005.3
2016-05-14T10:04:05.144Z,1005.31
2016-05-14T10:05:04.835Z,1005.31
2016-05-14T10:06:04.821Z,1005.3
2016-05-14T10:07:04.840Z,1005.3
2016-05-14T10:08:04.812Z,1005.27
2016-05-14T10:09:04.815Z,1005.34
2016-05-14T10:10:04.802Z,1005.36
2016-05-14T10:11:04.787Z,1005.34
2016-05-14T10:12:04.791Z,1005.33
2016-05-14T10:13:04.779Z,1005.34
2016-05-14T10:14:04.781Z,1005.34
2016-05-14T10:15:04.768Z,1005.28
2016-05-14T10:16:04.770Z,1005.32
2016-05-14T10:17:04.757Z,1005.33
2016-05-14T10:18:04.760Z,1005.34
2016-05-14T10:19:05.184Z,1005.35
2016-05-14T10:20:04.750Z,1005.34
2016-05-14T10:21:04.752Z,1005.34
2016-05-14T10:22:04.739Z,1005.34
2016-05-14T10:23:04.743Z,1005.29
2016-05-14T10:24:04.730Z,1005.35
2016-05-14T10:25:04.733Z,1005.34
2016-05-14T10:26:04.719Z,1005.36
2016-05-14T10:27:04.722Z,1005.3
2016-05-14T10:28:04.709Z,1005.37
2016-05-14T10:29:04.696Z,1005.35
2016-05-14T10:30:04.699Z,1005.33
2016-05-14T10:31:04.686Z,1005.34
2016-05-14T10:32:04.688Z,1005.34
2016-05-14T10:33:04.675Z,1005.37
2016-05-14T10:34:04.678Z,1005.4
2016-05-14T10:35:04.665Z,1005.44
2016-05-14T10:36:04.668Z,1005.44
2016-05-14T10:37:04.655Z,1005.49
2016-05-14T10:38:04.643Z,1005.52
2016-05-14T10:39:04.646Z,1005.43
2016-05-14T10:40:04.632Z,1005.41
2016-05-14T10:41:04.635Z,1005.39
2016-05-14T10:42:04.622Z,1005.38
2016-05-14T10:43:04.624Z,1005.38
2016-05-14T10:44:04.612Z,1005.41
2016-05-14T10:45:04.614Z,1005.33
2016-05-14T10:46:04.601Z,1005.35
2016-05-14T10:47:04.604Z,1005.35
2016-05-14T10:48:04.590Z,1005.44
2016-05-14T10:49:04.593Z,1005.37
2016-05-14T10:50:04.580Z,1005.48
2016-05-14T10:51:04.583Z,1005.35
2016-05-14T10:52:04.571Z,1005.36
2016-05-14T10:53:04.558Z,1005.44
2016-05-14T10:54:04.560Z,1005.51
2016-05-14T10:55:04.547Z,1005.47
2016-05-14T10:56:04.550Z,1005.47
2016-05-14T10:57:04.537Z,1005.45
2016-05-14T10:58:04.539Z,1005.48
2016-05-14T10:59:04.527Z,1005.5
2016-05-14T11:00:04.530Z,1005.44
2016-05-14T11:01:04.533Z,1005.47
2016-05-14T11:02:04.519Z,1005.4
2016-05-14T11:03:04.522Z,1005.38
2016-05-14T11:04:04.727Z,1005.43
2016-05-14T11:05:04.511Z,1005.42
2016-05-14T11:06:04.499Z,1005.48
2016-05-14T11:07:04.501Z,1005.47
2016-05-14T11:08:04.489Z,1005.49
2016-05-14T11:09:04.475Z,1005.49
2016-05-14T11:10:04.478Z,1005.53
2016-05-14T11:11:04.466Z,1005.54
2016-05-14T11:12:04.468Z,1005.52
2016-05-14T11:13:04.455Z,1005.54
2016-05-14T11:14:04.457Z,1005.49
2016-05-14T11:15:04.445Z,1005.52
2016-05-14T11:16:04.448Z,1005.56
2016-05-14T11:17:04.435Z,1005.54
2016-05-14T11:18:04.421Z,1005.53
2016-05-14T11:19:04.424Z,1005.48
2016-05-14T11:20:04.412Z,1005.58
2016-05-14T11:21:04.414Z,1005.4
2016-05-14T11:22:04.401Z,1005.42
2016-05-14T11:23:04.403Z,1005.44
2016-05-14T11:24:04.391Z,1005.44
2016-05-14T11:25:04.394Z,1005.46
2016-05-14T11:26:04.381Z,1005.47
2016-05-14T11:27:04.368Z,1005.51
2016-05-14T11:28:04.370Z,1005.49
2016-05-14T11:29:04.357Z,1005.51
2016-05-14T11:30:04.344Z,1005.52
2016-05-14T11:31:04.347Z,1005.54
2016-05-14T11:32:04.334Z,1005.4
2016-05-14T11:33:04.336Z,1005.53
2016-05-14T11:34:04.324Z,1005.38
2016-05-14T11:35:04.327Z,1005.46
2016-05-14T11:36:04.314Z,1005.46
2016-05-14T11:37:04.316Z,1005.46
2016-05-14T11:38:04.304Z,1005.46
2016-05-14T11:39:04.307Z,1005.47
2016-05-14T11:40:04.293Z,1005.44
2016-05-14T11:41:04.296Z,1005.44
2016-05-14T11:42:04.282Z,1005.49
2016-05-14T11:43:04.270Z,1005.53
2016-05-14T11:44:04.273Z,1005.45
2016-05-14T11:45:04.276Z,1005.43
2016-05-14T11:46:04.262Z,1005.48
2016-05-14T11:47:04.249Z,1005.45
2016-05-14T11:48:04.252Z,1005.44
2016-05-14T11:49:04.240Z,1005.46
2016-05-14T11:50:04.242Z,1005.57
2016-05-14T11:51:04.245Z,1005.45
2016-05-14T11:52:04.232Z,1005.41
2016-05-14T11:53:04.235Z,1005.42
2016-05-14T11:54:04.222Z,1005.45
2016-05-14T11:55:04.225Z,1005.44
2016-05-14T11:56:04.211Z,1005.5
2016-05-14T11:57:04.198Z,1005.48
2016-05-14T11:58:04.201Z,1005.43
2016-05-14T11:59:04.188Z,1005.47
2016-05-14T12:00:04.191Z,1005.5
2016-05-14T12:01:04.193Z,1005.44
2016-05-14T12:02:04.180Z,1005.48
2016-05-14T12:03:04.167Z,1005.43
2016-05-14T12:04:04.280Z,1005.5
2016-05-14T12:05:04.188Z,1005.43
2016-05-14T12:06:04.160Z,1005.38
2016-05-14T12:07:04.147Z,1005.39
2016-05-14T12:08:04.149Z,1005.44